TAF KSNY
KSNY 280520Z 2806/2906 25009KT P6SM SCT200 FM281500 30015G25KT P6SM SCT200 FM290000 28012KT P6SM SKC=
METAR KSNY
WC KSNY
WS KSNY
WV KSNY